createdAt,value
2018-06-13T00:00:09.941Z,3.77
2018-06-13T00:00:22.378Z,3.77
2018-06-13T00:00:34.825Z,3.77
2018-06-13T00:00:47.304Z,3.77
2018-06-13T00:00:59.865Z,3.77
2018-06-13T00:01:12.278Z,3.77
2018-06-13T00:01:24.683Z,3.77
2018-06-13T00:01:37.097Z,3.77
2018-06-13T00:01:49.523Z,3.77
2018-06-13T00:02:01.938Z,3.77
2018-06-13T00:02:14.340Z,3.77
2018-06-13T00:02:26.898Z,3.77
2018-06-13T00:02:39.335Z,3.77
2018-06-13T00:02:51.784Z,3.77
2018-06-13T00:03:04.228Z,3.77
2018-06-13T00:03:16.654Z,3.77
2018-06-13T00:03:29.057Z,3.77
2018-06-13T00:03:41.462Z,3.77
2018-06-13T00:03:53.881Z,3.77
2018-06-13T00:04:06.286Z,3.77
2018-06-13T00:04:18.703Z,3.77
2018-06-13T00:04:31.128Z,3.77
2018-06-13T00:04:43.543Z,3.77
2018-06-13T00:04:55.970Z,3.77
2018-06-13T00:05:08.388Z,3.77
2018-06-13T00:05:20.791Z,3.77
2018-06-13T00:05:33.189Z,3.77
2018-06-13T00:05:45.607Z,3.77
2018-06-13T00:05:58.014Z,3.77
2018-06-13T00:06:10.443Z,3.42
2018-06-13T00:06:22.845Z,3.42
2018-06-13T00:06:35.549Z,3.42
2018-06-13T00:06:48.104Z,3.42
2018-06-13T00:07:00.539Z,3.42
2018-06-13T00:07:12.944Z,3.42
2018-06-13T00:07:25.378Z,3.42
2018-06-13T00:07:37.795Z,3.42
2018-06-13T00:07:50.214Z,3.42
2018-06-13T00:08:02.622Z,3.42
2018-06-13T00:08:15.023Z,3.42
2018-06-13T00:08:27.467Z,3.42
2018-06-13T00:08:39.868Z,3.42
2018-06-13T00:08:52.384Z,3.42
2018-06-13T00:09:04.832Z,3.42
2018-06-13T00:09:17.274Z,3.42
2018-06-13T00:09:29.668Z,3.42
2018-06-13T00:09:42.079Z,3.42
2018-06-13T00:09:54.485Z,3.42
2018-06-13T00:10:06.886Z,3.42
2018-06-13T00:10:19.294Z,3.42
2018-06-13T00:10:31.733Z,3.42
2018-06-13T00:10:44.472Z,3.42
2018-06-13T00:10:56.914Z,3.42
2018-06-13T00:11:09.308Z,3.42
2018-06-13T00:11:21.713Z,3.42
2018-06-13T00:11:34.111Z,3.42
2018-06-13T00:11:46.578Z,3.42
2018-06-13T00:11:59.011Z,3.42
2018-06-13T00:12:11.468Z,3.42
2018-06-13T00:12:23.870Z,3.42
2018-06-13T00:12:36.268Z,3.42
2018-06-13T00:12:48.686Z,3.42
2018-06-13T00:13:01.211Z,3.42
2018-06-13T00:13:13.806Z,3.42
2018-06-13T00:13:26.223Z,3.42
2018-06-13T00:13:38.634Z,3.42
2018-06-13T00:13:51.051Z,3.42
2018-06-13T00:14:03.626Z,3.42
2018-06-13T00:14:16.058Z,3.42
2018-06-13T00:14:28.469Z,3.42
2018-06-13T00:14:40.940Z,3.42
2018-06-13T00:14:53.348Z,3.42
2018-06-13T00:15:05.771Z,3.42
2018-06-13T00:15:18.174Z,3.42
2018-06-13T00:15:30.636Z,3.42
2018-06-13T00:15:43.025Z,3.42
2018-06-13T00:15:55.417Z,3.42
2018-06-13T00:16:07.847Z,3.79
2018-06-13T00:16:20.272Z,3.79
2018-06-13T00:16:32.790Z,3.79
2018-06-13T00:16:45.204Z,3.79
2018-06-13T00:16:57.632Z,3.79
2018-06-13T00:17:10.086Z,3.79
2018-06-13T00:17:22.480Z,3.79
2018-06-13T00:17:34.872Z,3.79
2018-06-13T00:17:47.296Z,3.79
2018-06-13T00:17:59.837Z,3.79
2018-06-13T00:18:12.232Z,3.79
2018-06-13T00:18:24.735Z,3.79
2018-06-13T00:18:37.139Z,3.79
2018-06-13T00:18:49.744Z,3.79
2018-06-13T00:19:02.184Z,3.79
2018-06-13T00:19:14.671Z,3.79
2018-06-13T00:19:27.091Z,3.79
2018-06-13T00:19:39.641Z,3.79
2018-06-13T00:19:52.037Z,3.79
2018-06-13T00:20:04.607Z,3.79
2018-06-13T00:20:17.007Z,3.79
2018-06-13T00:20:29.404Z,3.79
2018-06-13T00:20:41.817Z,3.79
2018-06-13T00:20:54.404Z,3.79
2018-06-13T00:21:06.951Z,3.79
2018-06-13T00:21:19.363Z,3.79
2018-06-13T00:21:31.766Z,3.79
2018-06-13T00:21:44.168Z,3.79
2018-06-13T00:21:56.572Z,3.79
2018-06-13T00:22:08.966Z,3.79
2018-06-13T00:22:21.381Z,3.79
2018-06-13T00:22:33.790Z,3.79
2018-06-13T00:22:46.254Z,3.79
2018-06-13T00:22:58.645Z,3.79
2018-06-13T00:23:11.240Z,3.79
2018-06-13T00:23:23.671Z,3.79
2018-06-13T00:23:36.103Z,3.79
2018-06-13T00:23:48.528Z,3.79
2018-06-13T00:24:00.939Z,3.79
2018-06-13T00:24:13.350Z,3.79
2018-06-13T00:24:25.859Z,3.79
2018-06-13T00:24:38.372Z,3.79
2018-06-13T00:24:50.858Z,3.79
2018-06-13T00:25:03.266Z,3.79
2018-06-13T00:25:15.657Z,3.79
2018-06-13T00:25:28.358Z,3.79
2018-06-13T00:25:40.762Z,3.79
2018-06-13T00:25:53.181Z,3.79
2018-06-13T00:26:05.589Z,3.6
2018-06-13T00:26:18.047Z,3.6
2018-06-13T00:26:30.447Z,3.6
2018-06-13T00:26:42.859Z,3.6
2018-06-13T00:26:55.299Z,3.6
2018-06-13T00:27:07.731Z,3.6
2018-06-13T00:27:20.136Z,3.6
2018-06-13T00:27:32.541Z,3.6
2018-06-13T00:27:45.019Z,3.6
2018-06-13T00:27:57.427Z,3.6
2018-06-13T00:28:09.835Z,3.6
2018-06-13T00:28:22.249Z,3.6
2018-06-13T00:28:35.082Z,3.6
2018-06-13T00:28:47.517Z,3.6
2018-06-13T00:28:59.920Z,3.6
2018-06-13T00:29:12.321Z,3.6
2018-06-13T00:29:24.729Z,3.6
2018-06-13T00:29:37.134Z,3.6
2018-06-13T00:29:49.545Z,3.6
2018-06-13T00:30:01.957Z,3.6
2018-06-13T00:30:14.374Z,3.6
2018-06-13T00:30:26.770Z,3.6
2018-06-13T00:30:39.224Z,3.6
2018-06-13T00:30:51.624Z,3.6
2018-06-13T00:31:04.041Z,3.6
2018-06-13T00:31:16.436Z,3.6
2018-06-13T00:31:28.860Z,3.6
2018-06-13T00:31:41.266Z,3.6
2018-06-13T00:31:53.683Z,3.6
2018-06-13T00:32:06.090Z,3.6
2018-06-13T00:32:18.484Z,3.6
2018-06-13T00:32:31.133Z,3.6
2018-06-13T00:32:43.798Z,3.6
2018-06-13T00:32:56.202Z,3.6
2018-06-13T00:33:08.618Z,3.6
2018-06-13T00:33:21.286Z,3.6
2018-06-13T00:33:33.749Z,3.6
2018-06-13T00:33:46.330Z,3.6
2018-06-13T00:33:58.754Z,3.6
2018-06-13T00:34:11.216Z,3.6
2018-06-13T00:34:23.618Z,3.6
2018-06-13T00:34:36.022Z,3.6
2018-06-13T00:34:48.712Z,3.6
2018-06-13T00:35:01.349Z,3.6
2018-06-13T00:35:13.771Z,3.6
2018-06-13T00:35:26.163Z,3.6
2018-06-13T00:35:38.577Z,3.6
2018-06-13T00:35:50.981Z,3.6
2018-06-13T00:36:03.380Z,3.6
2018-06-13T00:36:15.830Z,3.33
2018-06-13T00:36:28.232Z,3.33
2018-06-13T00:36:40.636Z,3.33
2018-06-13T00:36:53.427Z,3.33
2018-06-13T00:37:06.524Z,3.33
2018-06-13T00:37:19.423Z,3.33
2018-06-13T00:37:31.829Z,3.33
2018-06-13T00:37:44.252Z,3.33
2018-06-13T00:37:56.666Z,3.33
2018-06-13T00:38:09.089Z,3.33
2018-06-13T00:38:21.503Z,3.33
2018-06-13T00:38:33.907Z,3.33
2018-06-13T00:38:46.298Z,3.33
2018-06-13T00:38:58.707Z,3.33
2018-06-13T00:39:11.153Z,3.33
2018-06-13T00:39:23.574Z,3.33
2018-06-13T00:39:35.991Z,3.33
2018-06-13T00:39:48.409Z,3.33
2018-06-13T00:40:00.811Z,3.33
2018-06-13T00:40:13.240Z,3.33
2018-06-13T00:40:25.645Z,3.33
2018-06-13T00:40:38.057Z,3.33
2018-06-13T00:40:50.463Z,3.33
2018-06-13T00:41:02.928Z,3.33
2018-06-13T00:41:15.348Z,3.33
2018-06-13T00:41:27.757Z,3.33
2018-06-13T00:41:40.183Z,3.33
2018-06-13T00:41:52.595Z,3.33
2018-06-13T00:42:05.008Z,3.33
2018-06-13T00:42:17.416Z,3.33
2018-06-13T00:42:29.809Z,3.33
2018-06-13T00:42:42.256Z,3.33
2018-06-13T00:42:54.679Z,3.33
2018-06-13T00:43:07.103Z,3.33
2018-06-13T00:43:19.544Z,3.33
2018-06-13T00:43:31.974Z,3.33
2018-06-13T00:43:44.412Z,3.33
2018-06-13T00:43:56.882Z,3.33
2018-06-13T00:44:09.296Z,3.33
2018-06-13T00:44:21.727Z,3.33
2018-06-13T00:44:34.200Z,3.33
2018-06-13T00:44:46.628Z,3.33
2018-06-13T00:44:59.017Z,3.33
2018-06-13T00:45:11.413Z,3.33
2018-06-13T00:45:23.814Z,3.33
2018-06-13T00:45:36.226Z,3.33
2018-06-13T00:45:48.642Z,3.33
2018-06-13T00:46:01.160Z,3.33
2018-06-13T00:46:13.592Z,3.44
2018-06-13T00:46:26.213Z,3.44
2018-06-13T00:46:38.618Z,3.44
2018-06-13T00:46:51.040Z,3.44
2018-06-13T00:47:03.461Z,3.44
2018-06-13T00:47:16.134Z,3.44
2018-06-13T00:47:28.599Z,3.44
2018-06-13T00:47:40.992Z,3.44
2018-06-13T00:47:53.414Z,3.44
2018-06-13T00:48:05.816Z,3.44
2018-06-13T00:48:18.266Z,3.44
2018-06-13T00:48:30.800Z,3.44
2018-06-13T00:48:43.217Z,3.44
2018-06-13T00:48:55.638Z,3.44
2018-06-13T00:49:08.077Z,3.44
2018-06-13T00:49:20.483Z,3.44
2018-06-13T00:49:32.892Z,3.44
2018-06-13T00:49:45.282Z,3.44
2018-06-13T00:49:57.686Z,3.44
2018-06-13T00:50:10.109Z,3.44
2018-06-13T00:50:22.540Z,3.44
2018-06-13T00:50:35.150Z,3.44
2018-06-13T00:50:47.743Z,3.44
2018-06-13T00:51:00.164Z,3.44
2018-06-13T00:51:12.637Z,3.44
2018-06-13T00:51:25.044Z,3.44
2018-06-13T00:51:37.445Z,3.44
2018-06-13T00:51:49.866Z,3.44
2018-06-13T00:52:02.322Z,3.44
2018-06-13T00:52:14.745Z,3.44
2018-06-13T00:52:27.167Z,3.44
2018-06-13T00:52:39.587Z,3.44
2018-06-13T00:52:52.007Z,3.44
2018-06-13T00:53:04.403Z,3.44
2018-06-13T00:53:16.805Z,3.44
2018-06-13T00:53:29.208Z,3.44
2018-06-13T00:53:41.646Z,3.44
2018-06-13T00:53:54.063Z,3.44
2018-06-13T00:54:06.465Z,3.44
2018-06-13T00:54:18.905Z,3.44
2018-06-13T00:54:31.340Z,3.44
2018-06-13T00:54:43.745Z,3.44
2018-06-13T00:54:56.172Z,3.44
2018-06-13T00:55:08.601Z,3.44
2018-06-13T00:55:21.016Z,3.44
2018-06-13T00:55:33.415Z,3.44
2018-06-13T00:55:45.805Z,3.44
2018-06-13T00:55:58.274Z,3.44
2018-06-13T00:56:10.673Z,3.44
2018-06-13T00:56:23.091Z,3.44
2018-06-13T00:56:35.569Z,2.87
2018-06-13T00:56:48.006Z,2.87
2018-06-13T00:57:00.424Z,2.87
2018-06-13T00:57:12.845Z,2.87
2018-06-13T00:57:25.253Z,2.87
2018-06-13T00:57:37.657Z,2.87
2018-06-13T00:57:50.064Z,2.87
2018-06-13T00:58:02.540Z,2.87
2018-06-13T00:58:14.952Z,2.87
2018-06-13T00:58:27.364Z,2.87
2018-06-13T00:58:39.796Z,2.87
2018-06-13T00:58:52.204Z,2.87
2018-06-13T00:59:04.628Z,2.87
2018-06-13T00:59:17.041Z,2.87
2018-06-13T00:59:29.494Z,2.87
2018-06-13T00:59:41.896Z,2.87
2018-06-13T00:59:54.299Z,2.87
2018-06-13T01:00:06.708Z,2.87
2018-06-13T01:00:19.136Z,2.87
2018-06-13T01:00:31.589Z,2.87
2018-06-13T01:00:44.007Z,2.87
2018-06-13T01:00:56.602Z,2.87
2018-06-13T01:01:09.006Z,2.87
2018-06-13T01:01:21.522Z,2.87
2018-06-13T01:01:33.972Z,2.87
2018-06-13T01:01:46.386Z,2.87
2018-06-13T01:01:58.794Z,2.87
2018-06-13T01:02:11.220Z,2.87
2018-06-13T01:02:23.657Z,2.87
2018-06-13T01:02:36.443Z,2.87
2018-06-13T01:02:48.877Z,2.87
2018-06-13T01:03:01.272Z,2.87
2018-06-13T01:03:13.695Z,2.87
2018-06-13T01:03:26.106Z,2.87
2018-06-13T01:03:38.503Z,2.87
2018-06-13T01:03:50.921Z,2.87
2018-06-13T01:04:03.340Z,2.87
2018-06-13T01:04:15.824Z,2.87
2018-06-13T01:04:28.235Z,2.87
2018-06-13T01:04:40.668Z,2.87
2018-06-13T01:04:53.083Z,2.87
2018-06-13T01:05:05.534Z,2.87
2018-06-13T01:05:17.937Z,2.87
2018-06-13T01:05:30.353Z,2.87
2018-06-13T01:05:42.979Z,2.87
2018-06-13T01:05:55.423Z,2.87
2018-06-13T01:06:07.839Z,2.87
2018-06-13T01:06:20.254Z,2.87
2018-06-13T01:06:32.655Z,2.9
2018-06-13T01:06:45.089Z,2.9
2018-06-13T01:06:57.650Z,2.9
2018-06-13T01:07:10.064Z,2.9
2018-06-13T01:07:22.483Z,2.9
2018-06-13T01:07:34.901Z,2.9
2018-06-13T01:07:47.319Z,2.9
2018-06-13T01:07:59.771Z,2.9
2018-06-13T01:08:12.203Z,2.9
2018-06-13T01:08:24.845Z,2.9
2018-06-13T01:08:37.253Z,2.9
2018-06-13T01:08:49.666Z,2.9
2018-06-13T01:09:02.047Z,2.9
2018-06-13T01:09:14.441Z,2.9
2018-06-13T01:09:26.831Z,2.9
2018-06-13T01:09:39.231Z,2.9
2018-06-13T01:09:51.650Z,2.9
2018-06-13T01:10:04.109Z,2.9
2018-06-13T01:10:16.530Z,2.9
2018-06-13T01:10:28.942Z,2.9
2018-06-13T01:10:41.354Z,2.9
2018-06-13T01:10:53.769Z,2.9
2018-06-13T01:11:06.161Z,2.9
2018-06-13T01:11:18.749Z,2.9
2018-06-13T01:11:31.152Z,2.9
2018-06-13T01:11:43.553Z,2.9
2018-06-13T01:11:55.954Z,2.9
2018-06-13T01:12:08.362Z,2.9
2018-06-13T01:12:20.799Z,2.9
2018-06-13T01:12:33.223Z,2.9
2018-06-13T01:12:45.633Z,2.9
2018-06-13T01:12:58.039Z,2.9
2018-06-13T01:13:10.427Z,2.9
2018-06-13T01:13:22.843Z,2.9
2018-06-13T01:13:35.268Z,2.9
2018-06-13T01:13:47.653Z,2.9
2018-06-13T01:14:00.068Z,2.9
2018-06-13T01:14:12.542Z,2.9
2018-06-13T01:14:25.053Z,2.9
2018-06-13T01:14:37.468Z,2.9
2018-06-13T01:14:49.926Z,2.9
2018-06-13T01:15:02.351Z,2.9
2018-06-13T01:15:14.782Z,2.9
2018-06-13T01:15:27.191Z,2.9
2018-06-13T01:15:39.603Z,2.9
2018-06-13T01:15:52.009Z,2.9
2018-06-13T01:16:04.431Z,2.9
2018-06-13T01:16:16.875Z,2.9
2018-06-13T01:16:29.280Z,2.9
2018-06-13T01:16:41.686Z,2.68
2018-06-13T01:16:54.103Z,2.68
2018-06-13T01:17:06.529Z,2.68
2018-06-13T01:17:18.940Z,2.68
2018-06-13T01:17:31.414Z,2.68
2018-06-13T01:17:43.806Z,2.68
2018-06-13T01:17:56.394Z,2.68
2018-06-13T01:18:08.836Z,2.68
2018-06-13T01:18:21.272Z,2.68
2018-06-13T01:18:33.698Z,2.68
2018-06-13T01:18:46.128Z,2.68
2018-06-13T01:18:58.540Z,2.68
2018-06-13T01:19:10.940Z,2.68
2018-06-13T01:19:23.431Z,2.68
2018-06-13T01:19:35.821Z,2.68
2018-06-13T01:19:48.252Z,2.68
2018-06-13T01:20:00.665Z,2.68
2018-06-13T01:20:13.067Z,2.68
2018-06-13T01:20:25.489Z,2.68
2018-06-13T01:20:37.904Z,2.68
2018-06-13T01:20:50.343Z,2.68
2018-06-13T01:21:02.969Z,2.68
2018-06-13T01:21:15.398Z,2.68
2018-06-13T01:21:27.811Z,2.68
2018-06-13T01:21:40.266Z,2.68
2018-06-13T01:21:52.693Z,2.68
2018-06-13T01:22:05.106Z,2.68
2018-06-13T01:22:17.513Z,2.68
2018-06-13T01:22:29.916Z,2.68
2018-06-13T01:22:42.354Z,2.68
2018-06-13T01:22:54.756Z,2.68
2018-06-13T01:23:07.180Z,2.68
2018-06-13T01:23:19.592Z,2.68
2018-06-13T01:23:32.006Z,2.68
2018-06-13T01:23:44.410Z,2.68
2018-06-13T01:23:56.851Z,2.68
2018-06-13T01:24:09.257Z,2.68
2018-06-13T01:24:21.764Z,2.68
2018-06-13T01:24:34.204Z,2.68
2018-06-13T01:24:46.653Z,2.68
2018-06-13T01:24:59.060Z,2.68
2018-06-13T01:25:11.687Z,2.68
2018-06-13T01:25:24.300Z,2.68
2018-06-13T01:25:36.861Z,2.68
2018-06-13T01:25:49.300Z,2.68
2018-06-13T01:26:01.730Z,2.68
2018-06-13T01:26:14.151Z,2.68
2018-06-13T01:26:26.569Z,2.68
2018-06-13T01:26:39.051Z,2.99
2018-06-13T01:26:51.446Z,2.99
2018-06-13T01:27:03.858Z,2.99
2018-06-13T01:27:16.288Z,2.99
2018-06-13T01:27:28.730Z,2.99
2018-06-13T01:27:41.130Z,2.99
2018-06-13T01:27:53.578Z,2.99
2018-06-13T01:28:06.011Z,2.99
2018-06-13T01:28:18.487Z,2.99
2018-06-13T01:28:30.906Z,2.99
2018-06-13T01:28:43.301Z,2.99
2018-06-13T01:28:55.716Z,2.99
2018-06-13T01:29:08.131Z,2.99
2018-06-13T01:29:21.327Z,2.99
2018-06-13T01:29:33.976Z,2.99
2018-06-13T01:29:46.389Z,2.99
2018-06-13T01:29:58.802Z,2.99
2018-06-13T01:30:11.207Z,2.99
2018-06-13T01:30:23.610Z,2.99
2018-06-13T01:30:36.037Z,2.99
2018-06-13T01:30:48.474Z,2.99
2018-06-13T01:31:00.896Z,2.99
2018-06-13T01:31:13.340Z,2.99
2018-06-13T01:31:25.747Z,2.99
2018-06-13T01:31:38.167Z,2.99
2018-06-13T01:31:50.570Z,2.99
2018-06-13T01:32:02.981Z,2.99
2018-06-13T01:32:15.423Z,2.99
2018-06-13T01:32:27.962Z,2.99
2018-06-13T01:32:40.372Z,2.99
2018-06-13T01:32:52.772Z,2.99
2018-06-13T01:33:05.179Z,2.99
2018-06-13T01:33:17.590Z,2.99
2018-06-13T01:33:30.015Z,2.99
2018-06-13T01:33:42.472Z,2.99
2018-06-13T01:33:54.889Z,2.99
2018-06-13T01:34:07.301Z,2.99
2018-06-13T01:34:19.710Z,2.99
2018-06-13T01:34:32.369Z,2.99
2018-06-13T01:34:44.778Z,2.99
2018-06-13T01:34:57.178Z,2.99
2018-06-13T01:35:09.593Z,2.99
2018-06-13T01:35:22.017Z,2.99
2018-06-13T01:35:34.422Z,2.99
2018-06-13T01:35:46.833Z,2.99
2018-06-13T01:35:59.319Z,2.99
2018-06-13T01:36:11.772Z,2.99
2018-06-13T01:36:24.177Z,2.99
2018-06-13T01:36:36.598Z,2.32
2018-06-13T01:36:49.050Z,2.32
2018-06-13T01:37:01.495Z,2.32
2018-06-13T01:37:13.924Z,2.32
2018-06-13T01:37:26.330Z,2.32
2018-06-13T01:37:38.748Z,2.32
2018-06-13T01:37:51.170Z,2.32
2018-06-13T01:38:03.602Z,2.32
2018-06-13T01:38:16.024Z,2.32
2018-06-13T01:38:28.409Z,2.32
2018-06-13T01:38:40.833Z,2.32
2018-06-13T01:38:53.284Z,2.32
2018-06-13T01:39:05.719Z,2.32
2018-06-13T01:39:18.123Z,2.32
2018-06-13T01:39:30.560Z,2.32
2018-06-13T01:39:43.017Z,2.32
2018-06-13T01:39:55.445Z,2.32
2018-06-13T01:40:07.860Z,2.32
2018-06-13T01:40:20.286Z,2.32
2018-06-13T01:40:32.710Z,2.32
2018-06-13T01:40:45.114Z,2.32
2018-06-13T01:40:57.530Z,2.32
2018-06-13T01:41:09.948Z,2.32
2018-06-13T01:41:22.369Z,2.32
2018-06-13T01:41:34.797Z,2.32
2018-06-13T01:41:47.255Z,2.32
2018-06-13T01:41:59.696Z,2.32
2018-06-13T01:42:12.112Z,2.32
2018-06-13T01:42:24.527Z,2.32
2018-06-13T01:42:36.934Z,2.32
2018-06-13T01:42:49.396Z,2.32
2018-06-13T01:43:01.803Z,2.32
2018-06-13T01:43:14.216Z,2.32
2018-06-13T01:43:26.626Z,2.32
2018-06-13T01:43:39.035Z,2.32
2018-06-13T01:43:51.461Z,2.32
2018-06-13T01:44:03.884Z,2.32
2018-06-13T01:44:16.279Z,2.32
2018-06-13T01:44:28.754Z,2.32
2018-06-13T01:44:41.186Z,2.32
2018-06-13T01:44:53.768Z,2.32
2018-06-13T01:45:06.186Z,2.32
2018-06-13T01:45:18.585Z,2.32
2018-06-13T01:45:30.993Z,2.32
2018-06-13T01:45:43.427Z,2.32
2018-06-13T01:45:55.970Z,2.32
2018-06-13T01:46:08.420Z,2.32
2018-06-13T01:46:20.857Z,2.32
2018-06-13T01:46:33.262Z,2.38
2018-06-13T01:46:45.678Z,2.38
2018-06-13T01:46:58.084Z,2.38
2018-06-13T01:47:10.566Z,2.38
2018-06-13T01:47:23.008Z,2.38
2018-06-13T01:47:35.415Z,2.38
2018-06-13T01:47:47.837Z,2.38
2018-06-13T01:48:00.249Z,2.38
2018-06-13T01:48:12.663Z,2.38
2018-06-13T01:48:25.069Z,2.38
2018-06-13T01:48:37.637Z,2.38
2018-06-13T01:48:50.049Z,2.38
2018-06-13T01:49:02.464Z,2.38
2018-06-13T01:49:14.855Z,2.38
2018-06-13T01:49:27.305Z,2.38
2018-06-13T01:49:39.733Z,2.38
2018-06-13T01:49:52.151Z,2.38
2018-06-13T01:50:04.587Z,2.38
2018-06-13T01:50:17.017Z,2.38
2018-06-13T01:50:29.434Z,2.38
2018-06-13T01:50:41.851Z,2.38
2018-06-13T01:50:54.261Z,2.38
2018-06-13T01:51:06.697Z,2.38
2018-06-13T01:51:19.104Z,2.38
2018-06-13T01:51:31.581Z,2.38
2018-06-13T01:51:44.015Z,2.38
2018-06-13T01:51:56.399Z,2.38
2018-06-13T01:52:08.805Z,2.38
2018-06-13T01:52:21.207Z,2.38
2018-06-13T01:52:33.598Z,2.38
2018-06-13T01:52:46.000Z,2.38
2018-06-13T01:52:58.426Z,2.38
2018-06-13T01:53:10.873Z,2.38
2018-06-13T01:53:23.305Z,2.38
2018-06-13T01:53:35.770Z,2.38
2018-06-13T01:53:48.229Z,2.38
2018-06-13T01:54:00.635Z,2.38
2018-06-13T01:54:13.050Z,2.38
2018-06-13T01:54:25.463Z,2.38
2018-06-13T01:54:37.880Z,2.38
2018-06-13T01:54:50.314Z,2.38
2018-06-13T01:55:02.717Z,2.38
2018-06-13T01:55:15.161Z,2.38
2018-06-13T01:55:27.558Z,2.38
2018-06-13T01:55:39.982Z,2.38
2018-06-13T01:55:52.376Z,2.38
2018-06-13T01:56:04.820Z,2.38
2018-06-13T01:56:17.221Z,2.38
2018-06-13T01:56:29.624Z,2.38
2018-06-13T01:56:42.034Z,2.27
2018-06-13T01:56:54.453Z,2.27
2018-06-13T01:57:06.854Z,2.27
2018-06-13T01:57:19.280Z,2.27
2018-06-13T01:57:31.689Z,2.27
2018-06-13T01:57:44.099Z,2.27
2018-06-13T01:57:56.499Z,2.27
2018-06-13T01:58:08.937Z,2.27
2018-06-13T01:58:21.356Z,2.27
2018-06-13T01:58:33.796Z,2.27
2018-06-13T01:58:46.220Z,2.27
2018-06-13T01:58:58.627Z,2.27
2018-06-13T01:59:11.028Z,2.27
2018-06-13T01:59:23.564Z,2.27
2018-06-13T01:59:35.954Z,2.27
2018-06-13T01:59:48.393Z,2.27
2018-06-13T02:00:00.803Z,2.27
2018-06-13T02:00:13.282Z,2.27
2018-06-13T02:00:25.768Z,2.27
2018-06-13T02:00:38.203Z,2.27
2018-06-13T02:00:50.640Z,2.27
2018-06-13T02:01:03.179Z,2.27
2018-06-13T02:01:15.603Z,2.27
2018-06-13T02:01:28.040Z,2.27
2018-06-13T02:01:40.455Z,2.27
2018-06-13T02:01:53.045Z,2.27
2018-06-13T02:02:05.477Z,2.27
2018-06-13T02:02:17.911Z,2.27
2018-06-13T02:02:30.500Z,2.27
2018-06-13T02:02:42.906Z,2.27
2018-06-13T02:02:55.301Z,2.27
2018-06-13T02:03:07.763Z,2.27
2018-06-13T02:03:20.178Z,2.27
2018-06-13T02:03:32.592Z,2.27
2018-06-13T02:03:44.999Z,2.27
2018-06-13T02:03:57.429Z,2.27
2018-06-13T02:04:09.874Z,2.27
2018-06-13T02:04:22.296Z,2.27
2018-06-13T02:04:34.722Z,2.27
2018-06-13T02:04:47.120Z,2.27
2018-06-13T02:04:59.508Z,2.27
2018-06-13T02:05:11.914Z,2.27
2018-06-13T02:05:24.327Z,2.27
2018-06-13T02:05:36.736Z,2.27
2018-06-13T02:05:49.168Z,2.27
2018-06-13T02:06:01.571Z,2.27
2018-06-13T02:06:14.127Z,2.27
2018-06-13T02:06:26.557Z,2.27
2018-06-13T02:06:38.963Z,2.93
2018-06-13T02:06:51.517Z,2.93
2018-06-13T02:07:03.907Z,2.93
2018-06-13T02:07:16.539Z,2.93
2018-06-13T02:07:28.955Z,2.93
2018-06-13T02:07:41.358Z,2.93
2018-06-13T02:07:53.769Z,2.93
2018-06-13T02:08:06.204Z,2.93
2018-06-13T02:08:18.619Z,2.93
2018-06-13T02:08:31.022Z,2.93
2018-06-13T02:08:43.467Z,2.93
2018-06-13T02:08:55.842Z,2.93
2018-06-13T02:09:08.245Z,2.93
2018-06-13T02:09:20.659Z,2.93
2018-06-13T02:09:33.062Z,2.93
2018-06-13T02:09:45.474Z,2.93
2018-06-13T02:09:57.888Z,2.93
2018-06-13T02:10:10.306Z,2.93
2018-06-13T02:10:22.692Z,2.93
2018-06-13T02:10:35.100Z,2.93
2018-06-13T02:10:47.498Z,2.93
2018-06-13T02:10:59.911Z,2.93
2018-06-13T02:11:12.339Z,2.93
2018-06-13T02:11:24.761Z,2.93
2018-06-13T02:11:37.154Z,2.93
2018-06-13T02:11:49.685Z,2.93
2018-06-13T02:12:02.068Z,2.93
2018-06-13T02:12:14.509Z,2.93
2018-06-13T02:12:26.916Z,2.93
2018-06-13T02:12:39.322Z,2.93
2018-06-13T02:12:51.747Z,2.93
2018-06-13T02:13:04.155Z,2.93
2018-06-13T02:13:16.556Z,2.93
2018-06-13T02:13:28.956Z,2.93
2018-06-13T02:13:41.362Z,2.93
2018-06-13T02:13:53.756Z,2.93
2018-06-13T02:14:06.173Z,2.93
2018-06-13T02:14:18.573Z,2.93
2018-06-13T02:14:30.977Z,2.93
2018-06-13T02:14:43.366Z,2.93
2018-06-13T02:14:55.764Z,2.93
2018-06-13T02:15:08.158Z,2.93
2018-06-13T02:15:20.853Z,2.93
2018-06-13T02:15:33.251Z,2.93
2018-06-13T02:15:45.634Z,2.93
2018-06-13T02:15:58.036Z,2.93
2018-06-13T02:16:10.450Z,2.93
2018-06-13T02:16:22.880Z,2.93
2018-06-13T02:16:35.300Z,2.5
2018-06-13T02:16:47.699Z,2.5
2018-06-13T02:17:00.138Z,2.5
2018-06-13T02:17:12.536Z,2.5
2018-06-13T02:17:24.948Z,2.5
2018-06-13T02:17:37.390Z,2.5
2018-06-13T02:17:49.788Z,2.5
2018-06-13T02:18:02.316Z,2.5
2018-06-13T02:18:14.715Z,2.5
2018-06-13T02:18:27.168Z,2.5
2018-06-13T02:18:39.580Z,2.5
2018-06-13T02:18:51.985Z,2.5
2018-06-13T02:19:04.390Z,2.5
2018-06-13T02:19:16.842Z,2.5
2018-06-13T02:19:29.275Z,2.5
2018-06-13T02:19:41.821Z,2.5
2018-06-13T02:19:54.245Z,2.5
2018-06-13T02:20:06.658Z,2.5
2018-06-13T02:20:19.071Z,2.5
2018-06-13T02:20:31.486Z,2.5
2018-06-13T02:20:43.888Z,2.5
2018-06-13T02:20:56.303Z,2.5
2018-06-13T02:21:08.952Z,2.5
2018-06-13T02:21:21.383Z,2.5
2018-06-13T02:21:33.786Z,2.5
2018-06-13T02:21:46.374Z,2.5
2018-06-13T02:21:59.312Z,2.5
2018-06-13T02:22:11.730Z,2.5
2018-06-13T02:22:24.130Z,2.5
2018-06-13T02:22:36.525Z,2.5
2018-06-13T02:22:49.137Z,2.5
2018-06-13T02:23:01.553Z,2.5
2018-06-13T02:23:13.981Z,2.5
2018-06-13T02:23:26.385Z,2.5
2018-06-13T02:23:38.784Z,2.5
2018-06-13T02:23:51.205Z,2.5
2018-06-13T02:24:03.634Z,2.5
2018-06-13T02:24:16.036Z,2.5
2018-06-13T02:24:28.483Z,2.5
2018-06-13T02:24:40.936Z,2.5
2018-06-13T02:24:53.348Z,2.5
2018-06-13T02:25:05.748Z,2.5
2018-06-13T02:25:18.155Z,2.5
2018-06-13T02:25:30.708Z,2.5
2018-06-13T02:25:43.129Z,2.5
2018-06-13T02:25:55.542Z,2.5
2018-06-13T02:26:07.949Z,2.5
2018-06-13T02:26:20.353Z,2.5
2018-06-13T02:26:32.754Z,2.5
2018-06-13T02:26:45.138Z,2.33
2018-06-13T02:26:57.557Z,2.33
2018-06-13T02:27:09.953Z,2.33
2018-06-13T02:27:22.646Z,2.33
2018-06-13T02:27:35.380Z,2.33
2018-06-13T02:27:47.795Z,2.33
2018-06-13T02:28:00.196Z,2.33
2018-06-13T02:28:12.645Z,2.33
2018-06-13T02:28:25.037Z,2.33
2018-06-13T02:28:37.425Z,2.33
2018-06-13T02:28:49.828Z,2.33
2018-06-13T02:29:02.292Z,2.33
2018-06-13T02:29:14.730Z,2.33
2018-06-13T02:29:27.135Z,2.33
2018-06-13T02:29:39.561Z,2.33
2018-06-13T02:29:51.953Z,2.33
2018-06-13T02:30:04.358Z,2.33
2018-06-13T02:30:16.829Z,2.33
2018-06-13T02:30:29.286Z,2.33
2018-06-13T02:30:41.753Z,2.33
2018-06-13T02:30:54.206Z,2.33
2018-06-13T02:31:06.654Z,2.33
2018-06-13T02:31:19.100Z,2.33
2018-06-13T02:31:31.534Z,2.33
2018-06-13T02:31:44.003Z,2.33
2018-06-13T02:31:56.476Z,2.33
2018-06-13T02:32:08.929Z,2.33
2018-06-13T02:32:21.336Z,2.33
2018-06-13T02:32:33.918Z,2.33
2018-06-13T02:32:46.319Z,2.33
2018-06-13T02:32:58.741Z,2.33
2018-06-13T02:33:11.184Z,2.33
2018-06-13T02:33:23.662Z,2.33
2018-06-13T02:33:36.092Z,2.33
2018-06-13T02:33:48.547Z,2.33
2018-06-13T02:34:00.967Z,2.33
2018-06-13T02:34:13.403Z,2.33
2018-06-13T02:34:25.848Z,2.33
2018-06-13T02:34:38.354Z,2.33
2018-06-13T02:34:50.810Z,2.33
2018-06-13T02:35:03.255Z,2.33
2018-06-13T02:35:15.739Z,2.33
2018-06-13T02:35:28.162Z,2.33
2018-06-13T02:35:40.594Z,2.33
2018-06-13T02:35:53.028Z,2.33
2018-06-13T02:36:05.453Z,2.33
2018-06-13T02:36:17.952Z,2.33
2018-06-13T02:36:30.372Z,2.33
2018-06-13T02:36:42.806Z,2.17
2018-06-13T02:36:55.215Z,2.17
2018-06-13T02:37:07.672Z,2.17
2018-06-13T02:37:20.110Z,2.17
2018-06-13T02:37:32.535Z,2.17
2018-06-13T02:37:44.951Z,2.17
2018-06-13T02:37:57.431Z,2.17
2018-06-13T02:38:09.868Z,2.17
2018-06-13T02:38:22.317Z,2.17
2018-06-13T02:38:34.764Z,2.17
2018-06-13T02:38:47.205Z,2.17
2018-06-13T02:38:59.670Z,2.17
2018-06-13T02:39:12.099Z,2.17
2018-06-13T02:39:24.550Z,2.17
2018-06-13T02:39:36.986Z,2.17
2018-06-13T02:39:49.384Z,2.17
2018-06-13T02:40:01.900Z,2.17
2018-06-13T02:40:14.404Z,2.17
2018-06-13T02:40:26.807Z,2.17
2018-06-13T02:40:39.264Z,2.17
2018-06-13T02:40:51.674Z,2.17
2018-06-13T02:41:04.123Z,2.17
2018-06-13T02:41:16.613Z,2.17
2018-06-13T02:41:29.062Z,2.17
2018-06-13T02:41:41.480Z,2.17
2018-06-13T02:41:53.917Z,2.17
2018-06-13T02:42:06.342Z,2.17
2018-06-13T02:42:18.815Z,2.17
2018-06-13T02:42:31.269Z,2.17
2018-06-13T02:42:43.822Z,2.17
2018-06-13T02:42:56.255Z,2.17
2018-06-13T02:43:08.697Z,2.17
2018-06-13T02:43:21.098Z,2.17
2018-06-13T02:43:33.585Z,2.17
2018-06-13T02:43:46.046Z,2.17
2018-06-13T02:43:58.478Z,2.17
2018-06-13T02:44:10.970Z,2.17
2018-06-13T02:44:23.392Z,2.17
2018-06-13T02:44:35.851Z,2.17
2018-06-13T02:44:48.324Z,2.17
2018-06-13T02:45:00.733Z,2.17
2018-06-13T02:45:13.164Z,2.17
2018-06-13T02:45:25.614Z,2.17
2018-06-13T02:45:38.034Z,2.17
2018-06-13T02:45:50.465Z,2.17
2018-06-13T02:46:03.072Z,2.17
2018-06-13T02:46:15.502Z,2.17
2018-06-13T02:46:27.953Z,2.17
2018-06-13T02:46:40.374Z,2.6